sensor_id;sensor_type;location;lat;lon;timestamp;pressure;altitude;pressure_sealevel;temperature;humidity
23261;BME280;11799;47.740;-3.390;2023-09-19T00:02:19;101448.63;;;16.06;100.00
23261;BME280;11799;47.740;-3.390;2023-09-19T00:04:45;101447.50;;;16.08;100.00
23261;BME280;11799;47.740;-3.390;2023-09-19T00:07:10;101445.69;;;16.09;100.00
23261;BME280;11799;47.740;-3.390;2023-09-19T00:09:36;101448.91;;;16.12;100.00
23261;BME280;11799;47.740;-3.390;2023-09-19T00:12:05;101437.41;;;16.12;100.00
23261;BME280;11799;47.740;-3.390;2023-09-19T00:14:32;101446.66;;;16.17;100.00
23261;BME280;11799;47.740;-3.390;2023-09-19T00:17:04;101427.72;;;16.21;100.00
23261;BME280;11799;47.740;-3.390;2023-09-19T00:19:36;101434.44;;;16.25;100.00
23261;BME280;11799;47.740;-3.390;2023-09-19T00:22:08;101434.31;;;16.26;100.00
23261;BME280;11799;47.740;-3.390;2023-09-19T00:24:33;101432.47;;;16.27;100.00
23261;BME280;11799;47.740;-3.390;2023-09-19T00:26:59;101428.13;;;16.26;100.00
23261;BME280;11799;47.740;-3.390;2023-09-19T00:29:25;101428.00;;;16.27;100.00
23261;BME280;11799;47.740;-3.390;2023-09-19T00:31:55;101436.56;;;16.31;100.00
23261;BME280;11799;47.740;-3.390;2023-09-19T00:34:22;101440.06;;;16.31;100.00
23261;BME280;11799;47.740;-3.390;2023-09-19T00:36:47;101434.44;;;16.34;100.00
23261;BME280;11799;47.740;-3.390;2023-09-19T00:39:13;101430.50;;;16.38;100.00
23261;BME280;11799;47.740;-3.390;2023-09-19T00:41:39;101431.22;;;16.40;100.00
23261;BME280;11799;47.740;-3.390;2023-09-19T00:44:06;101440.59;;;16.44;100.00
23261;BME280;11799;47.740;-3.390;2023-09-19T00:46:32;101440.59;;;16.44;100.00
23261;BME280;11799;47.740;-3.390;2023-09-19T00:48:58;101442.44;;;16.44;100.00
23261;BME280;11799;47.740;-3.390;2023-09-19T00:51:25;101436.25;;;16.53;100.00
23261;BME280;11799;47.740;-3.390;2023-09-19T00:53:54;101446.06;;;16.52;100.00
23261;BME280;11799;47.740;-3.390;2023-09-19T00:56:20;101440.31;;;16.47;100.00
23261;BME280;11799;47.740;-3.390;2023-09-19T00:58:46;101440.31;;;16.47;100.00
23261;BME280;11799;47.740;-3.390;2023-09-19T01:01:16;101430.09;;;16.43;100.00
23261;BME280;11799;47.740;-3.390;2023-09-19T01:03:42;101431.50;;;16.47;100.00
23261;BME280;11799;47.740;-3.390;2023-09-19T01:06:08;101435.84;;;16.48;100.00
23261;BME280;11799;47.740;-3.390;2023-09-19T01:08:35;101433.72;;;16.51;100.00
23261;BME280;11799;47.740;-3.390;2023-09-19T01:11:43;101436.94;;;16.55;100.00
23261;BME280;11799;47.740;-3.390;2023-09-19T01:14:33;101425.88;;;16.50;100.00
23261;BME280;11799;47.740;-3.390;2023-09-19T01:17:13;101434.00;;;16.48;100.00
23261;BME280;11799;47.740;-3.390;2023-09-19T01:22:42;101420.13;;;16.45;100.00
23261;BME280;11799;47.740;-3.390;2023-09-19T01:30:56;101420.56;;;16.40;100.00
23261;BME280;11799;47.740;-3.390;2023-09-19T01:33:26;101426.03;;;16.39;100.00
23261;BME280;11799;47.740;-3.390;2023-09-19T01:35:52;101427.72;;;16.30;100.00
23261;BME280;11799;47.740;-3.390;2023-09-19T01:38:24;101428.97;;;16.26;100.00
23261;BME280;11799;47.740;-3.390;2023-09-19T01:41:17;101427.44;;;16.24;100.00
23261;BME280;11799;47.740;-3.390;2023-09-19T01:43:49;101438.09;;;16.24;100.00
23261;BME280;11799;47.740;-3.390;2023-09-19T01:46:40;101428.00;;;16.17;100.00
23261;BME280;11799;47.740;-3.390;2023-09-19T01:49:25;101433.88;;;16.21;100.00
23261;BME280;11799;47.740;-3.390;2023-09-19T01:52:12;101435.44;;;16.24;100.00
23261;BME280;11799;47.740;-3.390;2023-09-19T01:55:03;101436.81;;;16.28;100.00
23261;BME280;11799;47.740;-3.390;2023-09-19T01:57:44;101438.66;;;16.27;100.00
23261;BME280;11799;47.740;-3.390;2023-09-19T02:00:15;101431.91;;;16.33;100.00
23261;BME280;11799;47.740;-3.390;2023-09-19T02:02:45;101431.63;;;16.36;100.00
23261;BME280;11799;47.740;-3.390;2023-09-19T02:05:13;101433.59;;;16.34;100.00
23261;BME280;11799;47.740;-3.390;2023-09-19T02:07:39;101430.22;;;16.41;100.00
23261;BME280;11799;47.740;-3.390;2023-09-19T02:10:06;101422.09;;;16.43;100.00
23261;BME280;11799;47.740;-3.390;2023-09-19T02:12:32;101415.50;;;16.47;100.00
23261;BME280;11799;47.740;-3.390;2023-09-19T02:15:02;101407.91;;;16.42;100.00
23261;BME280;11799;47.740;-3.390;2023-09-19T02:17:28;101396.84;;;16.37;100.00
23261;BME280;11799;47.740;-3.390;2023-09-19T02:19:56;101402.72;;;16.41;100.00
23261;BME280;11799;47.740;-3.390;2023-09-19T02:22:22;101396.69;;;16.39;100.00
23261;BME280;11799;47.740;-3.390;2023-09-19T02:24:48;101393.63;;;16.34;100.00
23261;BME280;11799;47.740;-3.390;2023-09-19T02:27:14;101397.28;;;16.33;100.00
23261;BME280;11799;47.740;-3.390;2023-09-19T02:29:41;101389.41;;;16.31;100.00
23261;BME280;11799;47.740;-3.390;2023-09-19T02:32:08;101385.78;;;16.32;100.00
23261;BME280;11799;47.740;-3.390;2023-09-19T02:34:35;101384.66;;;16.35;100.00
23261;BME280;11799;47.740;-3.390;2023-09-19T02:37:05;101381.00;;;16.36;100.00
23261;BME280;11799;47.740;-3.390;2023-09-19T02:39:31;101392.34;;;16.38;100.00
23261;BME280;11799;47.740;-3.390;2023-09-19T02:41:57;101391.66;;;16.36;100.00
23261;BME280;11799;47.740;-3.390;2023-09-19T02:44:22;101399.66;;;16.36;100.00
23261;BME280;11799;47.740;-3.390;2023-09-19T02:46:50;101400.91;;;16.32;100.00
23261;BME280;11799;47.740;-3.390;2023-09-19T02:49:16;101401.75;;;16.32;100.00
23261;BME280;11799;47.740;-3.390;2023-09-19T02:51:46;101395.72;;;16.30;100.00
23261;BME280;11799;47.740;-3.390;2023-09-19T02:54:12;101399.09;;;16.32;100.00
23261;BME280;11799;47.740;-3.390;2023-09-19T02:56:39;101402.47;;;16.34;100.00
23261;BME280;11799;47.740;-3.390;2023-09-19T02:59:04;101404.00;;;16.37;100.00
23261;BME280;11799;47.740;-3.390;2023-09-19T03:01:31;101392.91;;;16.32;100.00
23261;BME280;11799;47.740;-3.390;2023-09-19T03:03:57;101394.19;;;16.37;100.00
23261;BME280;11799;47.740;-3.390;2023-09-19T03:06:23;101390.53;;;16.38;100.00
23261;BME280;11799;47.740;-3.390;2023-09-19T03:08:49;101387.31;;;16.35;100.00
23261;BME280;11799;47.740;-3.390;2023-09-19T03:11:18;101402.72;;;16.41;100.00
23261;BME280;11799;47.740;-3.390;2023-09-19T03:13:54;101398.38;;;16.40;100.00
23261;BME280;11799;47.740;-3.390;2023-09-19T03:16:21;101389.97;;;16.35;100.00
23261;BME280;11799;47.740;-3.390;2023-09-19T03:18:53;101386.03;;;16.39;100.00
23261;BME280;11799;47.740;-3.390;2023-09-19T03:21:19;101390.81;;;16.45;100.00
23261;BME280;11799;47.740;-3.390;2023-09-19T03:23:45;101387.00;;;16.47;100.00
23261;BME280;11799;47.740;-3.390;2023-09-19T03:26:12;101385.19;;;16.48;100.00
23261;BME280;11799;47.740;-3.390;2023-09-19T03:28:38;101384.50;;;16.46;100.00
23261;BME280;11799;47.740;-3.390;2023-09-19T03:31:05;101376.63;;;16.44;100.00
23261;BME280;11799;47.740;-3.390;2023-09-19T03:33:34;101380.41;;;16.51;100.00
23261;BME280;11799;47.740;-3.390;2023-09-19T03:36:01;101382.94;;;16.53;100.00
23261;BME280;11799;47.740;-3.390;2023-09-19T03:38:30;101380.13;;;16.55;100.00
23261;BME280;11799;47.740;-3.390;2023-09-19T03:40:56;101379.13;;;16.56;100.00
23261;BME280;11799;47.740;-3.390;2023-09-19T03:43:21;101380.66;;;16.58;100.00
23261;BME280;11799;47.740;-3.390;2023-09-19T03:45:47;101382.22;;;16.61;100.00
23261;BME280;11799;47.740;-3.390;2023-09-19T03:48:14;101375.06;;;16.61;100.00
23261;BME280;11799;47.740;-3.390;2023-09-19T03:50:40;101367.63;;;16.65;100.00
23261;BME280;11799;47.740;-3.390;2023-09-19T03:53:05;101367.50;;;16.66;100.00
23261;BME280;11799;47.740;-3.390;2023-09-19T03:55:33;101362.84;;;16.68;100.00
23261;BME280;11799;47.740;-3.390;2023-09-19T03:58:01;101365.22;;;16.71;100.00
23261;BME280;11799;47.740;-3.390;2023-09-19T04:00:27;101361.56;;;16.72;100.00
23261;BME280;11799;47.740;-3.390;2023-09-19T04:02:54;101356.94;;;16.74;100.00
23261;BME280;11799;47.740;-3.390;2023-09-19T04:05:22;101356.75;;;16.76;100.00
23261;BME280;11799;47.740;-3.390;2023-09-19T04:07:48;101357.59;;;16.76;100.00
23261;BME280;11799;47.740;-3.390;2023-09-19T04:10:14;101333.66;;;16.67;100.00
23261;BME280;11799;47.740;-3.390;2023-09-19T04:12:40;101352.81;;;16.80;100.00
23261;BME280;11799;47.740;-3.390;2023-09-19T04:15:06;101341.31;;;16.79;100.00
23261;BME280;11799;47.740;-3.390;2023-09-19T04:17:32;101343.97;;;16.79;100.00
23261;BME280;11799;47.740;-3.390;2023-09-19T04:19:59;101323.47;;;16.80;100.00
23261;BME280;11799;47.740;-3.390;2023-09-19T04:22:25;101329.09;;;16.77;100.00
23261;BME280;11799;47.740;-3.390;2023-09-19T04:24:50;101340.88;;;16.84;100.00
23261;BME280;11799;47.740;-3.390;2023-09-19T04:27:16;101327.81;;;16.81;100.00
23261;BME280;11799;47.740;-3.390;2023-09-19T04:29:42;101337.91;;;16.87;100.00
23261;BME280;11799;47.740;-3.390;2023-09-19T04:32:08;101333.25;;;16.89;100.00
23261;BME280;11799;47.740;-3.390;2023-09-19T04:34:35;101340.28;;;16.90;100.00
23261;BME280;11799;47.740;-3.390;2023-09-19T04:37:01;101342.66;;;16.93;100.00
23261;BME280;11799;47.740;-3.390;2023-09-19T04:39:27;101341.66;;;16.94;100.00
23261;BME280;11799;47.740;-3.390;2023-09-19T04:41:53;101347.84;;;16.95;100.00
23261;BME280;11799;47.740;-3.390;2023-09-19T04:44:20;101347.69;;;16.96;100.00
23261;BME280;11799;47.740;-3.390;2023-09-19T04:46:46;101349.53;;;16.96;100.00
23261;BME280;11799;47.740;-3.390;2023-09-19T04:49:12;101341.53;;;16.96;100.00
23261;BME280;11799;47.740;-3.390;2023-09-19T04:51:39;101336.47;;;16.93;100.00
23261;BME280;11799;47.740;-3.390;2023-09-19T04:54:05;101345.72;;;16.98;100.00
23261;BME280;11799;47.740;-3.390;2023-09-19T04:56:32;101329.31;;;16.93;100.00
23261;BME280;11799;47.740;-3.390;2023-09-19T04:58:59;101346.41;;;17.00;100.00
23261;BME280;11799;47.740;-3.390;2023-09-19T05:01:25;101342.91;;;17.00;100.00
23261;BME280;11799;47.740;-3.390;2023-09-19T05:04:03;101335.59;;;17.02;100.00
23261;BME280;11799;47.740;-3.390;2023-09-19T05:06:30;101341.63;;;17.04;100.00
23261;BME280;11799;47.740;-3.390;2023-09-19T05:08:55;101340.63;;;17.05;100.00
23261;BME280;11799;47.740;-3.390;2023-09-19T05:11:21;101342.16;;;17.07;100.00
23261;BME280;11799;47.740;-3.390;2023-09-19T05:13:48;101329.66;;;17.08;100.00
23261;BME280;11799;47.740;-3.390;2023-09-19T05:16:16;101335.16;;;17.06;100.00
23261;BME280;11799;47.740;-3.390;2023-09-19T05:18:41;101333.16;;;17.08;100.00
23261;BME280;11799;47.740;-3.390;2023-09-19T05:21:07;101331.34;;;17.09;100.00
23261;BME280;11799;47.740;-3.390;2023-09-19T05:23:33;101324.03;;;17.11;100.00
23261;BME280;11799;47.740;-3.390;2023-09-19T05:25:59;101325.84;;;17.10;100.00
23261;BME280;11799;47.740;-3.390;2023-09-19T05:28:25;101332.19;;;17.09;100.00
23261;BME280;11799;47.740;-3.390;2023-09-19T05:30:52;101326.84;;;17.09;100.00
23261;BME280;11799;47.740;-3.390;2023-09-19T05:33:19;101323.94;;;17.03;100.00
23261;BME280;11799;47.740;-3.390;2023-09-19T05:35:45;101334.00;;;17.09;100.00
23261;BME280;11799;47.740;-3.390;2023-09-19T05:38:12;101321.94;;;17.05;100.00
23261;BME280;11799;47.740;-3.390;2023-09-19T05:40:40;101335.28;;;17.05;100.00
23261;BME280;11799;47.740;-3.390;2023-09-19T05:43:10;101330.25;;;17.02;100.00
23261;BME280;11799;47.740;-3.390;2023-09-19T05:45:36;101332.78;;;17.03;100.00
23261;BME280;11799;47.740;-3.390;2023-09-19T05:48:10;101327.72;;;17.00;100.00
23261;BME280;11799;47.740;-3.390;2023-09-19T05:50:36;101333.50;;;16.96;100.00
23261;BME280;11799;47.740;-3.390;2023-09-19T05:53:02;101331.69;;;16.96;100.00
23261;BME280;11799;47.740;-3.390;2023-09-19T05:55:29;101336.19;;;16.96;100.00
23261;BME280;11799;47.740;-3.390;2023-09-19T05:57:55;101335.19;;;16.97;100.00
23261;BME280;11799;47.740;-3.390;2023-09-19T06:00:21;101340.53;;;16.97;100.00
23261;BME280;11799;47.740;-3.390;2023-09-19T06:02:54;101333.50;;;16.96;100.00
23261;BME280;11799;47.740;-3.390;2023-09-19T06:05:21;101325.81;;;16.93;100.00
23261;BME280;11799;47.740;-3.390;2023-09-19T06:07:47;101323.44;;;16.90;100.00
23261;BME280;11799;47.740;-3.390;2023-09-19T06:10:13;101325.41;;;16.88;100.00
23261;BME280;11799;47.740;-3.390;2023-09-19T06:12:41;101315.72;;;16.87;100.00
23261;BME280;11799;47.740;-3.390;2023-09-19T06:15:10;101324.56;;;16.87;100.00
23261;BME280;11799;47.740;-3.390;2023-09-19T06:17:41;101333.25;;;16.89;100.00
23261;BME280;11799;47.740;-3.390;2023-09-19T06:20:07;101323.13;;;16.93;100.00
23261;BME280;11799;47.740;-3.390;2023-09-19T06:22:38;101325.50;;;16.96;100.00
23261;BME280;11799;47.740;-3.390;2023-09-19T06:25:05;101324.53;;;16.97;100.00
23261;BME280;11799;47.740;-3.390;2023-09-19T06:27:30;101322.09;;;17.03;100.00
23261;BME280;11799;47.740;-3.390;2023-09-19T06:29:56;101326.84;;;17.09;100.00
23261;BME280;11799;47.740;-3.390;2023-09-19T06:32:27;101327.38;;;17.13;100.00
23261;BME280;11799;47.740;-3.390;2023-09-19T06:34:53;101320.06;;;17.15;100.00
23261;BME280;11799;47.740;-3.390;2023-09-19T06:37:27;101311.91;;;17.16;100.00
23261;BME280;11799;47.740;-3.390;2023-09-19T06:39:53;101311.47;;;17.21;100.00
23261;BME280;11799;47.740;-3.390;2023-09-19T06:42:18;101311.03;;;17.26;100.00
23261;BME280;11799;47.740;-3.390;2023-09-19T06:44:44;101315.91;;;17.30;100.00
23261;BME280;11799;47.740;-3.390;2023-09-19T06:47:10;101323.28;;;17.36;100.00
23261;BME280;11799;47.740;-3.390;2023-09-19T06:49:36;101329.84;;;17.42;100.00
23261;BME280;11799;47.740;-3.390;2023-09-19T06:52:02;101328.72;;;17.44;100.00
23261;BME280;11799;47.740;-3.390;2023-09-19T06:54:28;101315.66;;;17.41;100.00
23261;BME280;11799;47.740;-3.390;2023-09-19T06:56:59;101320.69;;;17.44;100.00
23261;BME280;11799;47.740;-3.390;2023-09-19T06:59:25;101327.56;;;17.47;100.00
23261;BME280;11799;47.740;-3.390;2023-09-19T07:01:50;101331.06;;;17.47;100.00
23261;BME280;11799;47.740;-3.390;2023-09-19T07:04:16;101325.59;;;17.49;100.00
23261;BME280;11799;47.740;-3.390;2023-09-19T07:06:44;101329.63;;;17.53;100.00
23261;BME280;11799;47.740;-3.390;2023-09-19T07:09:11;101327.66;;;17.55;100.00
23261;BME280;11799;47.740;-3.390;2023-09-19T07:11:37;101319.34;;;17.58;100.00
23261;BME280;11799;47.740;-3.390;2023-09-19T07:14:03;101319.88;;;17.62;100.00
23261;BME280;11799;47.740;-3.390;2023-09-19T07:16:28;101323.38;;;17.62;100.00
23261;BME280;11799;47.740;-3.390;2023-09-19T07:18:55;101311.72;;;17.63;100.00
23261;BME280;11799;47.740;-3.390;2023-09-19T07:21:22;101303.41;;;17.66;100.00
23261;BME280;11799;47.740;-3.390;2023-09-19T07:23:48;101301.13;;;17.71;100.00
23261;BME280;11799;47.740;-3.390;2023-09-19T07:26:15;101299.16;;;17.73;100.00
23261;BME280;11799;47.740;-3.390;2023-09-19T07:28:41;101309.00;;;17.73;100.00
23261;BME280;11799;47.740;-3.390;2023-09-19T07:31:07;101310.66;;;17.74;100.00
23261;BME280;11799;47.740;-3.390;2023-09-19T07:33:36;101312.81;;;17.70;100.00
23261;BME280;11799;47.740;-3.390;2023-09-19T07:36:02;101297.47;;;17.72;100.00
23261;BME280;11799;47.740;-3.390;2023-09-19T07:38:27;101305.19;;;17.75;100.00
23261;BME280;11799;47.740;-3.390;2023-09-19T07:41:00;101316.69;;;17.76;100.00
23261;BME280;11799;47.740;-3.390;2023-09-19T07:43:25;101314.88;;;17.76;100.00
23261;BME280;11799;47.740;-3.390;2023-09-19T07:45:52;101314.78;;;17.86;100.00
23261;BME280;11799;47.740;-3.390;2023-09-19T07:48:17;101315.88;;;18.01;100.00
23261;BME280;11799;47.740;-3.390;2023-09-19T07:50:43;101304.16;;;18.20;100.00
23261;BME280;11799;47.740;-3.390;2023-09-19T07:53:09;101295.09;;;18.39;100.00
23261;BME280;11799;47.740;-3.390;2023-09-19T07:55:34;101299.50;;;18.56;100.00
23261;BME280;11799;47.740;-3.390;2023-09-19T07:58:00;101299.69;;;18.89;100.00
23261;BME280;11799;47.740;-3.390;2023-09-19T08:00:26;101298.75;;;19.14;100.00
23261;BME280;11799;47.740;-3.390;2023-09-19T08:02:51;101302.84;;;19.42;100.00
23261;BME280;11799;47.740;-3.390;2023-09-19T08:05:17;101287.81;;;19.82;100.00
23261;BME280;11799;47.740;-3.390;2023-09-19T08:07:45;101289.56;;;20.30;100.00
23261;BME280;11799;47.740;-3.390;2023-09-19T08:10:14;101305.91;;;20.76;100.00
23261;BME280;11799;47.740;-3.390;2023-09-19T08:12:42;101293.72;;;20.96;100.00
23261;BME280;11799;47.740;-3.390;2023-09-19T08:15:18;101279.38;;;21.12;100.00
23261;BME280;11799;47.740;-3.390;2023-09-19T08:17:45;101287.38;;;21.20;100.00
23261;BME280;11799;47.740;-3.390;2023-09-19T08:20:11;101279.19;;;21.22;100.00
23261;BME280;11799;47.740;-3.390;2023-09-19T08:22:48;101275.38;;;21.08;100.00
23261;BME280;11799;47.740;-3.390;2023-09-19T08:25:15;101270.34;;;21.05;100.00
23261;BME280;11799;47.740;-3.390;2023-09-19T08:27:45;101277.03;;;21.09;100.00
23261;BME280;11799;47.740;-3.390;2023-09-19T08:30:18;101282.75;;;21.06;100.00
23261;BME280;11799;47.740;-3.390;2023-09-19T08:32:45;101285.09;;;21.09;100.00
23261;BME280;11799;47.740;-3.390;2023-09-19T08:35:14;101283.44;;;21.08;100.00
23261;BME280;11799;47.740;-3.390;2023-09-19T08:37:39;101299.50;;;21.16;100.00
23261;BME280;11799;47.740;-3.390;2023-09-19T08:40:05;101289.28;;;21.12;100.00
23261;BME280;11799;47.740;-3.390;2023-09-19T08:42:52;101308.06;;;21.12;100.00
23261;BME280;11799;47.740;-3.390;2023-09-19T08:45:19;101300.72;;;21.05;100.00
23261;BME280;11799;47.740;-3.390;2023-09-19T08:50:30;101308.59;;;21.07;100.00
23261;BME280;11799;47.740;-3.390;2023-09-19T08:53:01;101298.00;;;21.14;100.00
23261;BME280;11799;47.740;-3.390;2023-09-19T08:55:27;101295.50;;;21.12;100.00
23261;BME280;11799;47.740;-3.390;2023-09-19T08:58:03;101301.34;;;21.16;100.00
23261;BME280;11799;47.740;-3.390;2023-09-19T09:00:30;101298.03;;;21.05;100.00
23261;BME280;11799;47.740;-3.390;2023-09-19T09:02:57;101313.88;;;20.92;100.00
23261;BME280;11799;47.740;-3.390;2023-09-19T09:05:24;101318.44;;;20.84;100.00
23261;BME280;11799;47.740;-3.390;2023-09-19T09:07:50;101317.66;;;20.75;100.00
23261;BME280;11799;47.740;-3.390;2023-09-19T09:10:22;101312.56;;;20.80;100.00
23261;BME280;11799;47.740;-3.390;2023-09-19T09:12:52;101315.66;;;20.69;100.00
23261;BME280;11799;47.740;-3.390;2023-09-19T09:15:21;101312.16;;;20.68;100.00
23261;BME280;11799;47.740;-3.390;2023-09-19T09:17:47;101315.31;;;20.72;100.00
23261;BME280;11799;47.740;-3.390;2023-09-19T09:20:18;101304.59;;;20.72;100.00
23261;BME280;11799;47.740;-3.390;2023-09-19T09:22:51;101305.09;;;20.67;100.00
23261;BME280;11799;47.740;-3.390;2023-09-19T09:25:18;101313.16;;;20.67;100.00
23261;BME280;11799;47.740;-3.390;2023-09-19T09:27:48;101318.59;;;20.82;100.00
23261;BME280;11799;47.740;-3.390;2023-09-19T09:30:36;101314.00;;;20.68;100.00
23261;BME280;11799;47.740;-3.390;2023-09-19T09:33:09;101316.34;;;20.71;100.00
23261;BME280;11799;47.740;-3.390;2023-09-19T09:35:37;101321.13;;;20.84;100.00
23261;BME280;11799;47.740;-3.390;2023-09-19T09:38:06;101324.22;;;21.03;100.00
23261;BME280;11799;47.740;-3.390;2023-09-19T09:40:47;101314.81;;;21.07;100.00
23261;BME280;11799;47.740;-3.390;2023-09-19T09:43:37;101307.09;;;21.04;100.00
23261;BME280;11799;47.740;-3.390;2023-09-19T09:46:19;101311.25;;;21.15;100.00
23261;BME280;11799;47.740;-3.390;2023-09-19T09:48:59;101294.47;;;21.21;100.00
23261;BME280;11799;47.740;-3.390;2023-09-19T09:52:01;101282.00;;;21.20;100.00
23261;BME280;11799;47.740;-3.390;2023-09-19T09:54:31;101293.41;;;21.30;100.00
23261;BME280;11799;47.740;-3.390;2023-09-19T09:57:09;101284.81;;;21.35;100.00
23261;BME280;11799;47.740;-3.390;2023-09-19T09:59:54;101291.41;;;21.47;100.00
23261;BME280;11799;47.740;-3.390;2023-09-19T10:02:28;101298.59;;;21.55;100.00
23261;BME280;11799;47.740;-3.390;2023-09-19T10:04:57;101304.44;;;21.58;100.00
23261;BME280;11799;47.740;-3.390;2023-09-19T10:07:40;101291.00;;;21.58;100.00
23261;BME280;11799;47.740;-3.390;2023-09-19T10:10:12;101304.97;;;21.54;100.00
23261;BME280;11799;47.740;-3.390;2023-09-19T10:12:47;101300.44;;;21.54;100.00
23261;BME280;11799;47.740;-3.390;2023-09-19T10:15:15;101295.91;;;21.55;100.00
23261;BME280;11799;47.740;-3.390;2023-09-19T10:17:44;101292.13;;;21.41;100.00
23261;BME280;11799;47.740;-3.390;2023-09-19T10:20:17;101299.34;;;21.40;100.00
23261;BME280;11799;47.740;-3.390;2023-09-19T10:23:09;101293.94;;;21.18;100.00
23261;BME280;11799;47.740;-3.390;2023-09-19T10:25:46;101299.19;;;21.11;100.00
23261;BME280;11799;47.740;-3.390;2023-09-19T10:28:14;101294.13;;;21.16;100.00
23261;BME280;11799;47.740;-3.390;2023-09-19T10:30:44;101299.78;;;21.29;100.00
23261;BME280;11799;47.740;-3.390;2023-09-19T10:33:13;101299.25;;;21.34;100.00
23261;BME280;11799;47.740;-3.390;2023-09-19T10:35:44;101287.84;;;21.32;100.00
23261;BME280;11799;47.740;-3.390;2023-09-19T10:38:11;101295.28;;;21.45;100.00
23261;BME280;11799;47.740;-3.390;2023-09-19T10:40:38;101294.88;;;21.56;100.00
23261;BME280;11799;47.740;-3.390;2023-09-19T10:43:12;101289.88;;;21.53;100.00
23261;BME280;11799;47.740;-3.390;2023-09-19T10:45:38;101288.56;;;21.49;100.00
23261;BME280;11799;47.740;-3.390;2023-09-19T10:48:05;101294.75;;;21.49;100.00
23261;BME280;11799;47.740;-3.390;2023-09-19T10:50:36;101284.38;;;21.46;100.00
23261;BME280;11799;47.740;-3.390;2023-09-19T10:53:07;101288.72;;;21.47;100.00
23261;BME280;11799;47.740;-3.390;2023-09-19T10:55:36;101283.97;;;21.34;100.00
23261;BME280;11799;47.740;-3.390;2023-09-19T10:58:03;101288.03;;;21.30;100.00
23261;BME280;11799;47.740;-3.390;2023-09-19T11:00:56;101292.03;;;21.34;100.00
23261;BME280;11799;47.740;-3.390;2023-09-19T11:03:25;101289.41;;;21.26;100.00
23261;BME280;11799;47.740;-3.390;2023-09-19T11:06:09;101297.47;;;21.18;100.00
23261;BME280;11799;47.740;-3.390;2023-09-19T11:09:03;101295.63;;;21.19;100.00
23261;BME280;11799;47.740;-3.390;2023-09-19T11:30:34;101277.81;;;21.26;100.00
23261;BME280;11799;47.740;-3.390;2023-09-19T11:36:05;101283.88;;;21.42;100.00
23261;BME280;11799;47.740;-3.390;2023-09-19T11:49:18;101283.38;;;21.24;100.00
23261;BME280;11799;47.740;-3.390;2023-09-19T11:51:50;101282.53;;;21.16;100.00
23261;BME280;11799;47.740;-3.390;2023-09-19T11:54:17;101281.41;;;21.10;100.00
23261;BME280;11799;47.740;-3.390;2023-09-19T11:56:44;101283.44;;;21.08;100.00
23261;BME280;11799;47.740;-3.390;2023-09-19T11:59:11;101283.06;;;21.11;100.00
23261;BME280;11799;47.740;-3.390;2023-09-19T12:01:38;101278.72;;;21.10;100.00
23261;BME280;11799;47.740;-3.390;2023-09-19T12:04:11;101286.88;;;21.25;100.00
23261;BME280;11799;47.740;-3.390;2023-09-19T12:06:37;101276.63;;;21.28;100.00
23261;BME280;11799;47.740;-3.390;2023-09-19T12:09:12;101277.94;;;21.32;100.00
23261;BME280;11799;47.740;-3.390;2023-09-19T12:11:42;101259.19;;;21.24;100.00
23261;BME280;11799;47.740;-3.390;2023-09-19T12:14:09;101281.66;;;21.31;100.00
23261;BME280;11799;47.740;-3.390;2023-09-19T12:16:35;101278.69;;;21.41;100.00
23261;BME280;11799;47.740;-3.390;2023-09-19T12:19:18;101279.72;;;21.63;100.00
23261;BME280;11799;47.740;-3.390;2023-09-19T12:21:57;101272.53;;;21.55;100.00
23261;BME280;11799;47.740;-3.390;2023-09-19T12:24:25;101269.38;;;21.52;100.00
23261;BME280;11799;47.740;-3.390;2023-09-19T12:26:52;101269.13;;;21.38;100.00
23261;BME280;11799;47.740;-3.390;2023-09-19T12:29:19;101268.06;;;21.48;100.00
23261;BME280;11799;47.740;-3.390;2023-09-19T12:31:55;101271.84;;;21.61;100.00
23261;BME280;11799;47.740;-3.390;2023-09-19T12:34:28;101276.06;;;21.56;100.00
23261;BME280;11799;47.740;-3.390;2023-09-19T12:39:43;101276.06;;;21.56;100.00
23261;BME280;11799;47.740;-3.390;2023-09-19T12:42:15;101265.03;;;21.51;100.00
23261;BME280;11799;47.740;-3.390;2023-09-19T12:44:45;101277.75;;;21.57;100.00
23261;BME280;11799;47.740;-3.390;2023-09-19T12:47:15;101268.31;;;21.61;100.00
23261;BME280;11799;47.740;-3.390;2023-09-19T12:52:46;101254.22;;;21.59;100.00
23261;BME280;11799;47.740;-3.390;2023-09-19T12:55:26;101260.19;;;21.69;100.00
23261;BME280;11799;47.740;-3.390;2023-09-19T12:58:02;101255.34;;;21.64;100.00
23261;BME280;11799;47.740;-3.390;2023-09-19T13:00:40;101258.81;;;21.73;100.00
23261;BME280;11799;47.740;-3.390;2023-09-19T13:03:25;101251.94;;;21.70;100.00
23261;BME280;11799;47.740;-3.390;2023-09-19T13:05:55;101243.09;;;21.62;100.00
23261;BME280;11799;47.740;-3.390;2023-09-19T13:08:37;101246.03;;;21.52;100.00
23261;BME280;11799;47.740;-3.390;2023-09-19T13:17:07;101236.25;;;21.59;100.00
23261;BME280;11799;47.740;-3.390;2023-09-19T13:19:44;101237.94;;;21.75;100.00
23261;BME280;11799;47.740;-3.390;2023-09-19T13:22:42;101245.91;;;21.68;100.00
23261;BME280;11799;47.740;-3.390;2023-09-19T13:25:11;101248.38;;;21.55;100.00
23261;BME280;11799;47.740;-3.390;2023-09-19T13:27:41;101235.22;;;21.37;100.00
23261;BME280;11799;47.740;-3.390;2023-09-19T13:30:07;101241.66;;;21.36;100.00
23261;BME280;11799;47.740;-3.390;2023-09-19T13:32:33;101228.47;;;21.19;100.00
23261;BME280;11799;47.740;-3.390;2023-09-19T13:34:59;101228.75;;;21.01;100.00
23261;BME280;11799;47.740;-3.390;2023-09-19T13:37:25;101233.81;;;20.96;100.00
23261;BME280;11799;47.740;-3.390;2023-09-19T13:39:52;101236.19;;;20.91;100.00